createdAt,value
2023-08-09T00:03:18.534Z,9
2023-08-09T00:08:01.104Z,9
2023-08-09T00:12:43.835Z,9
2023-08-09T00:17:26.545Z,9
2023-08-09T00:22:09.320Z,9
2023-08-09T00:26:52.043Z,9
2023-08-09T00:31:34.748Z,9
2023-08-09T00:36:17.474Z,9
2023-08-09T00:41:00.201Z,9
2023-08-09T00:45:42.971Z,9
2023-08-09T00:50:25.681Z,9
2023-08-09T00:55:08.456Z,9
2023-08-09T00:59:51.096Z,9
2023-08-09T01:09:16.562Z,9
2023-08-09T01:13:59.316Z,9
2023-08-09T01:18:42.111Z,9
2023-08-09T01:23:24.775Z,9
2023-08-09T01:28:07.522Z,9
2023-08-09T01:32:50.230Z,9
2023-08-09T01:37:33.039Z,9
2023-08-09T01:42:15.040Z,9
2023-08-09T01:46:57.715Z,9
2023-08-09T01:51:40.443Z,9
2023-08-09T01:56:23.156Z,9
2023-08-09T02:01:05.954Z,9
2023-08-09T02:05:48.619Z,9
2023-08-09T02:10:30.672Z,9
2023-08-09T02:19:55.410Z,9
2023-08-09T02:24:38.144Z,9
2023-08-09T02:29:20.842Z,9
2023-08-09T02:34:03.603Z,9
2023-08-09T02:38:46.375Z,9
2023-08-09T02:43:29.082Z,4
2023-08-09T02:48:11.766Z,9
2023-08-09T02:52:54.523Z,9
2023-08-09T02:57:37.235Z,9
2023-08-09T03:02:19.979Z,9
2023-08-09T03:07:02.737Z,9
2023-08-09T03:11:45.452Z,9
2023-08-09T03:16:27.439Z,9
2023-08-09T03:21:10.255Z,9
2023-08-09T03:25:52.957Z,9
2023-08-09T03:30:35.669Z,12
2023-08-09T03:35:18.333Z,15
2023-08-09T03:40:01.112Z,20
2023-08-09T03:44:43.865Z,20
2023-08-09T03:49:26.580Z,30
2023-08-09T03:54:09.292Z,60
2023-08-09T03:58:52.096Z,105
2023-08-09T04:03:34.804Z,178
2023-08-09T04:08:17.472Z,296
2023-08-09T04:13:00.208Z,216
2023-08-09T04:17:42.925Z,321
2023-08-09T04:22:25.653Z,392
2023-08-09T04:27:08.528Z,953
2023-08-09T04:31:51.131Z,431
2023-08-09T04:41:16.650Z,319
2023-08-09T04:45:59.329Z,560
2023-08-09T04:50:42.085Z,552
2023-08-09T04:55:24.863Z,1619
2023-08-09T05:00:07.568Z,861
2023-08-09T05:04:50.278Z,1725
2023-08-09T05:09:33.006Z,2413
2023-08-09T05:18:58.484Z,1254
2023-08-09T05:23:41.193Z,2259
2023-08-09T05:28:24.011Z,3026
2023-08-09T05:37:49.422Z,2929
2023-08-09T05:42:32.097Z,1429
2023-08-09T05:51:57.633Z,1793
2023-08-09T05:56:40.335Z,2459
2023-08-09T06:01:23.029Z,3450
2023-08-09T06:06:05.745Z,3244
2023-08-09T06:10:49.046Z,4611
2023-08-09T06:15:31.854Z,4332
2023-08-09T06:20:15.148Z,4968
2023-08-09T06:24:58.406Z,5331
2023-08-09T06:29:41.667Z,5031
2023-08-09T06:34:24.903Z,7186
2023-08-09T06:39:08.273Z,5445
2023-08-09T06:43:51.478Z,2590
2023-08-09T06:48:34.779Z,4193
2023-08-09T06:53:18.439Z,2379
2023-08-09T06:58:01.537Z,3624
2023-08-09T07:02:44.926Z,5368
2023-08-09T07:07:27.881Z,8172
2023-08-09T07:12:11.054Z,8896
2023-08-09T07:16:54.716Z,12340
2023-08-09T07:21:37.650Z,5898
2023-08-09T07:31:03.689Z,11501
2023-08-09T07:35:46.933Z,8706
2023-08-09T07:40:30.210Z,10589
2023-08-09T07:45:13.492Z,15678
2023-08-09T07:49:56.789Z,11041
2023-08-09T07:54:40.075Z,9434
2023-08-09T07:59:23.291Z,9439
2023-08-09T08:04:06.975Z,12186
2023-08-09T08:08:50.134Z,14598
2023-08-09T08:13:33.268Z,20051
2023-08-09T08:18:16.766Z,16247
2023-08-09T08:22:59.595Z,15489
2023-08-09T08:27:43.303Z,13431
2023-08-09T08:32:26.301Z,12462
2023-08-09T08:37:09.684Z,16497
2023-08-09T08:41:53.027Z,29839
2023-08-09T08:51:19.211Z,25255
2023-08-09T08:56:02.591Z,24266
2023-08-09T09:00:45.447Z,29542
2023-08-09T09:05:28.545Z,34053
2023-08-09T09:10:11.905Z,33684
2023-08-09T09:14:54.887Z,22964
2023-08-09T09:19:38.394Z,29221
2023-08-09T09:24:21.390Z,13012
2023-08-09T09:29:03.908Z,28971
2023-08-09T09:33:47.583Z,33870
2023-08-09T09:38:30.650Z,50953
2023-08-09T09:43:14.015Z,39640
2023-08-09T09:47:57.079Z,43713
2023-08-09T09:52:40.359Z,37441
2023-08-09T09:57:23.642Z,26661
2023-08-09T10:02:06.458Z,29068
2023-08-09T10:06:49.703Z,35929
2023-08-09T10:11:32.536Z,26192
2023-08-09T10:16:15.593Z,26206
2023-08-09T10:20:58.713Z,44949
2023-08-09T10:25:41.668Z,48701
2023-08-09T10:30:25.235Z,20286
2023-08-09T10:35:08.316Z,60816
2023-08-09T10:39:51.456Z,25664
2023-08-09T10:44:35.053Z,26887
2023-08-09T10:49:18.205Z,46464
2023-08-09T10:54:01.516Z,18222
2023-08-09T10:58:44.907Z,47238
2023-08-09T11:03:27.964Z,43027
2023-08-09T11:08:11.398Z,61084
2023-08-09T11:12:54.552Z,58243
2023-08-09T11:17:38.044Z,44628
2023-08-09T11:27:03.755Z,60301
2023-08-09T11:31:47.147Z,33079
2023-08-09T11:36:30.222Z,23745
2023-08-09T11:41:13.807Z,39754
2023-08-09T11:45:56.932Z,17148
2023-08-09T11:50:40.071Z,28880
2023-08-09T11:55:23.429Z,38163
2023-08-09T12:00:06.606Z,25241
2023-08-09T12:09:31.666Z,38468
2023-08-09T12:14:14.419Z,9201
2023-08-09T12:18:56.526Z,5492
2023-08-09T12:23:39.147Z,6064
2023-08-09T12:28:22.065Z,7739
2023-08-09T12:33:04.685Z,16525
2023-08-09T12:37:47.303Z,23263
2023-08-09T12:42:30.083Z,41054
2023-08-09T12:47:12.968Z,38264
2023-08-09T12:51:55.601Z,23986
2023-08-09T12:56:38.265Z,21621
2023-08-09T13:01:21.054Z,14803
2023-08-09T13:06:03.837Z,5014
2023-08-09T13:10:46.482Z,6210
2023-08-09T13:15:29.212Z,5042
2023-08-09T13:20:11.267Z,4376
2023-08-09T13:24:53.900Z,6723
2023-08-09T13:29:36.748Z,10785
2023-08-09T13:34:19.436Z,8691
2023-08-09T13:39:02.161Z,21622
2023-08-09T13:43:44.859Z,20855
2023-08-09T13:48:27.635Z,24640
2023-08-09T13:53:10.442Z,26342
2023-08-09T13:57:52.221Z,17712
2023-08-09T14:07:17.134Z,37937
2023-08-09T14:11:59.550Z,30377
2023-08-09T14:16:42.067Z,24297
2023-08-09T14:21:24.703Z,31201
2023-08-09T14:26:07.059Z,25139
2023-08-09T14:35:31.147Z,15973
2023-08-09T14:40:13.606Z,20414
2023-08-09T14:44:56.137Z,15270
2023-08-09T14:49:38.600Z,18485
2023-08-09T14:54:21.050Z,20313
2023-08-09T14:59:03.504Z,17468
2023-08-09T15:03:46.012Z,17532
2023-08-09T15:08:28.531Z,18802
2023-08-09T15:13:11.049Z,20032
2023-08-09T15:17:52.748Z,19976
2023-08-09T15:22:34.232Z,22346
2023-08-09T15:27:16.732Z,19573
2023-08-09T15:31:59.132Z,20564
2023-08-09T15:41:24.300Z,17363
2023-08-09T15:46:06.744Z,16905
2023-08-09T15:50:49.226Z,16921
2023-08-09T15:55:31.832Z,18271
2023-08-09T16:00:14.164Z,16192
2023-08-09T16:04:56.588Z,14883
2023-08-09T16:09:39.077Z,15149
2023-08-09T16:14:21.648Z,12886
2023-08-09T16:19:03.990Z,11811
2023-08-09T16:28:29.119Z,14166
2023-08-09T16:33:11.617Z,11400
2023-08-09T16:37:53.928Z,11323
2023-08-09T16:42:35.824Z,12933
2023-08-09T16:47:17.445Z,12728
2023-08-09T16:51:59.816Z,18320
2023-08-09T16:56:42.213Z,23772
2023-08-09T17:01:24.648Z,18378
2023-08-09T17:06:07.318Z,16067
2023-08-09T17:15:32.086Z,10317
2023-08-09T17:20:14.592Z,15219
2023-08-09T17:24:57.152Z,10692
2023-08-09T17:29:39.579Z,8658
2023-08-09T17:34:22.115Z,7461
2023-08-09T17:39:04.480Z,8744
2023-08-09T17:43:47.141Z,7317
2023-08-09T17:48:29.527Z,5186
2023-08-09T17:53:12.062Z,4370
2023-08-09T18:02:36.032Z,3104
2023-08-09T18:07:18.637Z,2556
2023-08-09T18:12:01.086Z,2113
2023-08-09T18:16:43.519Z,1803
2023-08-09T18:21:26.024Z,1479
2023-08-09T18:26:08.602Z,1163
2023-08-09T18:30:51.245Z,880
2023-08-09T18:35:33.501Z,670
2023-08-09T18:40:16.009Z,480
2023-08-09T18:49:41.107Z,188
2023-08-09T18:54:23.383Z,95
2023-08-09T18:59:05.863Z,49
2023-08-09T19:03:48.443Z,41
2023-08-09T19:08:30.893Z,23
2023-08-09T19:13:13.281Z,18
2023-08-09T19:17:55.785Z,12
2023-08-09T19:22:38.323Z,9
2023-08-09T19:27:20.807Z,9
2023-08-09T19:36:45.746Z,9
2023-08-09T19:41:28.179Z,9
2023-08-09T19:46:10.765Z,9
2023-08-09T19:50:53.217Z,9
2023-08-09T19:55:35.722Z,9
2023-08-09T20:00:18.128Z,9
2023-08-09T20:05:00.864Z,9
2023-08-09T20:09:43.210Z,9
2023-08-09T20:14:25.647Z,9
2023-08-09T20:23:50.560Z,9
2023-08-09T20:28:32.148Z,9
2023-08-09T20:33:14.702Z,9
2023-08-09T20:37:57.325Z,4
2023-08-09T20:42:39.678Z,4
2023-08-09T20:47:22.149Z,4
2023-08-09T20:52:04.653Z,9
2023-08-09T20:56:47.204Z,4
2023-08-09T21:01:29.592Z,4
2023-08-09T21:10:54.506Z,4
2023-08-09T21:15:37.017Z,9
2023-08-09T21:20:19.514Z,9
2023-08-09T21:25:01.955Z,9
2023-08-09T21:29:44.626Z,9
2023-08-09T21:34:26.961Z,9
2023-08-09T21:39:09.440Z,4
2023-08-09T21:43:52.012Z,4
2023-08-09T21:48:34.484Z,4
2023-08-09T21:57:59.357Z,4
2023-08-09T22:02:41.914Z,4
2023-08-09T22:07:24.406Z,4
2023-08-09T22:12:06.827Z,4
2023-08-09T22:16:49.392Z,4
2023-08-09T22:21:31.856Z,4
2023-08-09T22:26:13.425Z,4
2023-08-09T22:30:55.954Z,7
2023-08-09T22:35:38.453Z,7
2023-08-09T22:45:03.410Z,7
2023-08-09T22:49:45.964Z,7
2023-08-09T22:54:28.463Z,7
2023-08-09T22:59:10.892Z,7
2023-08-09T23:03:53.328Z,7
2023-08-09T23:08:35.840Z,7
2023-08-09T23:13:18.245Z,7
2023-08-09T23:18:00.859Z,7
2023-08-09T23:22:43.417Z,7
2023-08-09T23:32:07.505Z,7
2023-08-09T23:36:50.041Z,7
2023-08-09T23:41:32.397Z,7
2023-08-09T23:46:14.980Z,7
2023-08-09T23:50:57.240Z,7
2023-08-09T23:55:39.776Z,7
